sensor_id;sensor_type;location;lat;lon;timestamp;pressure;altitude;pressure_sealevel;temperature;humidity
59417;BME280;45222;52.458;20.914;2023-01-29T00:02:20;101636.23;;;-1.84;76.60
59417;BME280;45222;52.458;20.914;2023-01-29T00:06:09;101624.32;;;-1.87;76.70
59417;BME280;45222;52.458;20.914;2023-01-29T00:09:58;101611.85;;;-1.90;76.38
59417;BME280;45222;52.458;20.914;2023-01-29T00:13:45;101613.95;;;-1.97;76.41
59417;BME280;45222;52.458;20.914;2023-01-29T00:17:33;101609.58;;;-1.98;76.42
59417;BME280;45222;52.458;20.914;2023-01-29T00:21:22;101601.71;;;-1.99;76.79
59417;BME280;45222;52.458;20.914;2023-01-29T00:25:11;101604.61;;;-1.94;77.29
59417;BME280;45222;52.458;20.914;2023-01-29T00:28:58;101606.63;;;-1.90;77.53
59417;BME280;45222;52.458;20.914;2023-01-29T00:32:48;101600.29;;;-1.85;77.31
59417;BME280;45222;52.458;20.914;2023-01-29T00:36:35;101590.30;;;-1.87;77.26
59417;BME280;45222;52.458;20.914;2023-01-29T00:40:24;101587.47;;;-1.90;77.16
59417;BME280;45222;52.458;20.914;2023-01-29T00:44:12;101592.96;;;-1.93;77.12
59417;BME280;45222;52.458;20.914;2023-01-29T00:48:17;101593.44;;;-1.95;76.67
59417;BME280;45222;52.458;20.914;2023-01-29T00:52:05;101589.11;;;-2.01;76.57
59417;BME280;45222;52.458;20.914;2023-01-29T00:56:19;101580.64;;;-2.06;76.83
59417;BME280;45222;52.458;20.914;2023-01-29T01:00:11;101574.99;;;-2.09;76.88
59417;BME280;45222;52.458;20.914;2023-01-29T01:04:00;101560.61;;;-2.06;76.99
59417;BME280;45222;52.458;20.914;2023-01-29T01:07:49;101550.23;;;-2.02;76.85
59417;BME280;45222;52.458;20.914;2023-01-29T01:11:37;101543.24;;;-2.02;76.90
59417;BME280;45222;52.458;20.914;2023-01-29T01:15:27;101541.27;;;-1.97;76.61
59417;BME280;45222;52.458;20.914;2023-01-29T01:19:15;101539.37;;;-1.96;76.46
59417;BME280;45222;52.458;20.914;2023-01-29T01:23:03;101537.36;;;-2.01;76.33
59417;BME280;45222;52.458;20.914;2023-01-29T01:26:51;101533.65;;;-2.03;75.71
59417;BME280;45222;52.458;20.914;2023-01-29T01:30:39;101541.23;;;-2.07;75.57
59417;BME280;45222;52.458;20.914;2023-01-29T01:34:27;101542.27;;;-2.15;75.76
59417;BME280;45222;52.458;20.914;2023-01-29T01:38:15;101541.65;;;-2.19;76.08
59417;BME280;45222;52.458;20.914;2023-01-29T01:42:04;101545.85;;;-2.18;76.22
59417;BME280;45222;52.458;20.914;2023-01-29T01:45:52;101538.59;;;-2.16;76.28
59417;BME280;45222;52.458;20.914;2023-01-29T01:49:40;101540.73;;;-2.14;76.21
59417;BME280;45222;52.458;20.914;2023-01-29T01:53:31;101537.54;;;-2.17;76.21
59417;BME280;45222;52.458;20.914;2023-01-29T01:57:23;101539.45;;;-2.16;75.85
59417;BME280;45222;52.458;20.914;2023-01-29T02:01:12;101547.30;;;-2.17;75.76
59417;BME280;45222;52.458;20.914;2023-01-29T02:05:00;101550.14;;;-2.21;75.69
59417;BME280;45222;52.458;20.914;2023-01-29T02:09:08;101547.80;;;-2.25;75.66
59417;BME280;45222;52.458;20.914;2023-01-29T02:13:15;101540.83;;;-2.32;75.96
59417;BME280;45222;52.458;20.914;2023-01-29T02:17:04;101534.70;;;-2.34;75.73
59417;BME280;45222;52.458;20.914;2023-01-29T02:21:06;101529.25;;;-2.36;75.98
59417;BME280;45222;52.458;20.914;2023-01-29T02:29:08;101520.73;;;-2.28;76.53
59417;BME280;45222;52.458;20.914;2023-01-29T02:37:13;101506.70;;;-2.24;76.60
59417;BME280;45222;52.458;20.914;2023-01-29T02:41:05;101509.10;;;-2.26;76.61
59417;BME280;45222;52.458;20.914;2023-01-29T02:45:02;101507.64;;;-2.28;76.54
59417;BME280;45222;52.458;20.914;2023-01-29T02:48:58;101505.28;;;-2.33;76.60
59417;BME280;45222;52.458;20.914;2023-01-29T02:52:53;101503.14;;;-2.34;76.58
59417;BME280;45222;52.458;20.914;2023-01-29T02:56:50;101501.11;;;-2.33;76.82
59417;BME280;45222;52.458;20.914;2023-01-29T03:00:43;101498.08;;;-2.28;77.24
59417;BME280;45222;52.458;20.914;2023-01-29T03:04:35;101497.31;;;-2.22;77.21
59417;BME280;45222;52.458;20.914;2023-01-29T03:08:31;101494.69;;;-2.23;77.24
59417;BME280;45222;52.458;20.914;2023-01-29T03:12:29;101493.96;;;-2.25;77.37
59417;BME280;45222;52.458;20.914;2023-01-29T03:16:23;101490.67;;;-2.24;77.20
59417;BME280;45222;52.458;20.914;2023-01-29T03:20:17;101486.39;;;-2.28;77.17
59417;BME280;45222;52.458;20.914;2023-01-29T03:24:07;101484.95;;;-2.30;77.34
59417;BME280;45222;52.458;20.914;2023-01-29T03:28:16;101481.64;;;-2.30;77.45
59417;BME280;45222;52.458;20.914;2023-01-29T03:32:23;101481.27;;;-2.23;77.86
59417;BME280;45222;52.458;20.914;2023-01-29T03:36:17;101479.92;;;-2.21;77.99
59417;BME280;45222;52.458;20.914;2023-01-29T03:40:10;101481.20;;;-2.18;78.12
59417;BME280;45222;52.458;20.914;2023-01-29T03:44:07;101479.30;;;-2.18;78.11
59417;BME280;45222;52.458;20.914;2023-01-29T03:48:03;101474.21;;;-2.19;78.11
59417;BME280;45222;52.458;20.914;2023-01-29T03:51:59;101476.05;;;-2.22;78.08
59417;BME280;45222;52.458;20.914;2023-01-29T03:55:54;101473.18;;;-2.26;78.15
59417;BME280;45222;52.458;20.914;2023-01-29T03:59:51;101465.11;;;-2.30;78.23
59417;BME280;45222;52.458;20.914;2023-01-29T04:03:42;101457.27;;;-2.29;78.34
59417;BME280;45222;52.458;20.914;2023-01-29T04:07:33;101455.42;;;-2.26;78.63
59417;BME280;45222;52.458;20.914;2023-01-29T04:11:21;101446.96;;;-2.21;78.75
59417;BME280;45222;52.458;20.914;2023-01-29T04:15:12;101441.83;;;-2.18;78.67
59417;BME280;45222;52.458;20.914;2023-01-29T04:19:01;101440.63;;;-2.17;78.46
59417;BME280;45222;52.458;20.914;2023-01-29T04:22:51;101438.79;;;-2.12;78.55
59417;BME280;45222;52.458;20.914;2023-01-29T04:26:52;101442.91;;;-2.15;78.54
59417;BME280;45222;52.458;20.914;2023-01-29T04:30:49;101435.70;;;-2.20;78.55
59417;BME280;45222;52.458;20.914;2023-01-29T04:34:47;101439.77;;;-2.24;78.61
59417;BME280;45222;52.458;20.914;2023-01-29T04:38:45;101435.80;;;-2.23;78.73
59417;BME280;45222;52.458;20.914;2023-01-29T04:42:39;101433.59;;;-2.20;78.90
59417;BME280;45222;52.458;20.914;2023-01-29T04:46:34;101425.17;;;-2.13;79.02
59417;BME280;45222;52.458;20.914;2023-01-29T04:50:30;101419.95;;;-2.13;78.78
59417;BME280;45222;52.458;20.914;2023-01-29T04:54:30;101415.04;;;-2.15;78.81
59417;BME280;45222;52.458;20.914;2023-01-29T04:58:25;101421.23;;;-2.19;78.76
59417;BME280;45222;52.458;20.914;2023-01-29T05:02:17;101421.70;;;-2.22;78.86
59417;BME280;45222;52.458;20.914;2023-01-29T05:06:08;101431.25;;;-2.15;79.10
59417;BME280;45222;52.458;20.914;2023-01-29T05:09:57;101423.36;;;-2.08;79.43
59417;BME280;45222;52.458;20.914;2023-01-29T05:13:45;101420.10;;;-2.06;79.05
59417;BME280;45222;52.458;20.914;2023-01-29T05:17:34;101416.60;;;-2.07;79.15
59417;BME280;45222;52.458;20.914;2023-01-29T05:21:23;101404.30;;;-2.11;79.00
59417;BME280;45222;52.458;20.914;2023-01-29T05:25:22;101405.64;;;-2.14;78.97
59417;BME280;45222;52.458;20.914;2023-01-29T05:29:10;101394.75;;;-2.10;79.05
59417;BME280;45222;52.458;20.914;2023-01-29T05:32:58;101388.91;;;-2.06;79.06
59417;BME280;45222;52.458;20.914;2023-01-29T05:36:46;101389.51;;;-2.02;78.85
59417;BME280;45222;52.458;20.914;2023-01-29T05:40:34;101387.34;;;-2.05;78.85
59417;BME280;45222;52.458;20.914;2023-01-29T05:44:22;101389.23;;;-2.08;78.82
59417;BME280;45222;52.458;20.914;2023-01-29T05:48:10;101384.52;;;-2.08;78.54
59417;BME280;45222;52.458;20.914;2023-01-29T05:51:57;101381.06;;;-2.06;78.79
59417;BME280;45222;52.458;20.914;2023-01-29T05:55:46;101373.93;;;-2.05;78.87
59417;BME280;45222;52.458;20.914;2023-01-29T05:59:34;101379.27;;;-2.00;78.85
59417;BME280;45222;52.458;20.914;2023-01-29T06:03:21;101385.15;;;-2.02;78.85
59417;BME280;45222;52.458;20.914;2023-01-29T06:07:09;101381.70;;;-2.01;78.70
59417;BME280;45222;52.458;20.914;2023-01-29T06:10:57;101387.02;;;-2.04;78.68
59417;BME280;45222;52.458;20.914;2023-01-29T06:14:44;101386.11;;;-2.07;78.71
59417;BME280;45222;52.458;20.914;2023-01-29T06:18:32;101381.44;;;-2.05;78.64
59417;BME280;45222;52.458;20.914;2023-01-29T06:22:20;101383.13;;;-1.99;78.99
59417;BME280;45222;52.458;20.914;2023-01-29T06:26:09;101378.95;;;-1.97;78.90
59417;BME280;45222;52.458;20.914;2023-01-29T06:29:57;101380.95;;;-1.93;78.73
59417;BME280;45222;52.458;20.914;2023-01-29T06:33:45;101381.52;;;-1.91;78.26
59417;BME280;45222;52.458;20.914;2023-01-29T06:37:33;101386.39;;;-1.92;78.26
59417;BME280;45222;52.458;20.914;2023-01-29T06:41:22;101378.65;;;-1.95;78.20
59417;BME280;45222;52.458;20.914;2023-01-29T06:45:11;101379.93;;;-1.92;78.31
59417;BME280;45222;52.458;20.914;2023-01-29T06:49:00;101390.29;;;-1.89;78.51
59417;BME280;45222;52.458;20.914;2023-01-29T06:52:48;101396.17;;;-1.81;78.70
59417;BME280;45222;52.458;20.914;2023-01-29T06:56:35;101397.75;;;-1.81;78.58
59417;BME280;45222;52.458;20.914;2023-01-29T07:00:23;101385.71;;;-1.82;78.50
59417;BME280;45222;52.458;20.914;2023-01-29T07:04:11;101369.48;;;-1.81;78.30
59417;BME280;45222;52.458;20.914;2023-01-29T07:07:59;101368.83;;;-1.80;78.10
59417;BME280;45222;52.458;20.914;2023-01-29T07:11:47;101372.66;;;-1.80;78.20
59417;BME280;45222;52.458;20.914;2023-01-29T07:15:35;101371.58;;;-1.72;78.65
59417;BME280;45222;52.458;20.914;2023-01-29T07:19:22;101368.46;;;-1.71;78.49
59417;BME280;45222;52.458;20.914;2023-01-29T07:23:11;101384.47;;;-1.73;78.15
59417;BME280;45222;52.458;20.914;2023-01-29T07:26:59;101396.30;;;-1.74;78.28
59417;BME280;45222;52.458;20.914;2023-01-29T07:30:47;101397.55;;;-1.73;78.53
59417;BME280;45222;52.458;20.914;2023-01-29T07:34:35;101397.81;;;-1.68;78.53
59417;BME280;45222;52.458;20.914;2023-01-29T07:38:23;101389.38;;;-1.62;78.60
59417;BME280;45222;52.458;20.914;2023-01-29T07:42:11;101385.19;;;-1.52;78.37
59417;BME280;45222;52.458;20.914;2023-01-29T07:46:02;101374.47;;;-1.46;78.18
59417;BME280;45222;52.458;20.914;2023-01-29T07:49:50;101361.96;;;-1.43;77.76
59417;BME280;45222;52.458;20.914;2023-01-29T07:53:37;101354.86;;;-1.40;77.67
59417;BME280;45222;52.458;20.914;2023-01-29T07:57:25;101359.61;;;-1.37;78.09
59417;BME280;45222;52.458;20.914;2023-01-29T08:01:13;101365.45;;;-1.32;77.89
59417;BME280;45222;52.458;20.914;2023-01-29T08:05:01;101369.17;;;-1.29;77.48
59417;BME280;45222;52.458;20.914;2023-01-29T08:08:49;101369.67;;;-1.31;77.53
59417;BME280;45222;52.458;20.914;2023-01-29T08:12:37;101360.63;;;-1.28;77.68
59417;BME280;45222;52.458;20.914;2023-01-29T08:16:25;101353.76;;;-1.22;77.77
59417;BME280;45222;52.458;20.914;2023-01-29T08:20:13;101348.45;;;-1.26;77.57
59417;BME280;45222;52.458;20.914;2023-01-29T08:24:01;101349.79;;;-1.30;77.72
59417;BME280;45222;52.458;20.914;2023-01-29T08:27:49;101353.77;;;-1.32;78.10
59417;BME280;45222;52.458;20.914;2023-01-29T08:31:37;101359.57;;;-1.30;78.35
59417;BME280;45222;52.458;20.914;2023-01-29T08:35:25;101360.58;;;-1.31;78.48
59417;BME280;45222;52.458;20.914;2023-01-29T08:39:13;101363.40;;;-1.29;78.51
59417;BME280;45222;52.458;20.914;2023-01-29T08:43:01;101365.02;;;-1.27;78.79
59417;BME280;45222;52.458;20.914;2023-01-29T08:46:49;101355.81;;;-1.24;78.96
59417;BME280;45222;52.458;20.914;2023-01-29T08:50:37;101363.14;;;-1.25;79.25
59417;BME280;45222;52.458;20.914;2023-01-29T08:54:25;101357.36;;;-1.26;79.59
59417;BME280;45222;52.458;20.914;2023-01-29T08:58:13;101353.74;;;-1.22;80.07
59417;BME280;45222;52.458;20.914;2023-01-29T09:02:01;101345.78;;;-1.19;80.63
59417;BME280;45222;52.458;20.914;2023-01-29T09:05:49;101341.58;;;-1.19;80.97
59417;BME280;45222;52.458;20.914;2023-01-29T09:09:36;101332.38;;;-1.28;81.58
59417;BME280;45222;52.458;20.914;2023-01-29T09:13:24;101333.68;;;-1.33;81.79
59417;BME280;45222;52.458;20.914;2023-01-29T09:17:12;101332.92;;;-1.37;82.23
59417;BME280;45222;52.458;20.914;2023-01-29T09:21:00;101331.70;;;-1.37;83.02
59417;BME280;45222;52.458;20.914;2023-01-29T09:24:49;101319.47;;;-1.39;82.93
59417;BME280;45222;52.458;20.914;2023-01-29T09:28:36;101318.52;;;-1.43;83.21
59417;BME280;45222;52.458;20.914;2023-01-29T09:32:24;101316.13;;;-1.40;83.21
59417;BME280;45222;52.458;20.914;2023-01-29T09:36:12;101317.30;;;-1.32;83.75
59417;BME280;45222;52.458;20.914;2023-01-29T09:40:00;101320.16;;;-1.28;84.29
59417;BME280;45222;52.458;20.914;2023-01-29T09:43:50;101315.77;;;-1.30;84.30
59417;BME280;45222;52.458;20.914;2023-01-29T09:47:40;101310.85;;;-1.32;84.28
59417;BME280;45222;52.458;20.914;2023-01-29T09:51:31;101310.86;;;-1.31;84.26
59417;BME280;45222;52.458;20.914;2023-01-29T09:55:24;101306.45;;;-1.33;84.52
59417;BME280;45222;52.458;20.914;2023-01-29T09:59:14;101305.64;;;-1.30;84.55
59417;BME280;45222;52.458;20.914;2023-01-29T10:03:18;101296.63;;;-1.26;84.67
59417;BME280;45222;52.458;20.914;2023-01-29T10:07:20;101293.23;;;-1.31;84.65
59417;BME280;45222;52.458;20.914;2023-01-29T10:11:22;101294.05;;;-1.35;84.84
59417;BME280;45222;52.458;20.914;2023-01-29T10:15:21;101290.88;;;-1.37;84.66
59417;BME280;45222;52.458;20.914;2023-01-29T10:19:31;101284.48;;;-1.33;84.89
59417;BME280;45222;52.458;20.914;2023-01-29T10:23:26;101278.54;;;-1.33;84.74
59417;BME280;45222;52.458;20.914;2023-01-29T10:27:17;101275.89;;;-1.36;84.92
59417;BME280;45222;52.458;20.914;2023-01-29T10:31:09;101275.95;;;-1.31;84.85
59417;BME280;45222;52.458;20.914;2023-01-29T10:35:03;101274.92;;;-1.30;84.90
59417;BME280;45222;52.458;20.914;2023-01-29T10:38:51;101277.53;;;-1.30;84.88
59417;BME280;45222;52.458;20.914;2023-01-29T10:42:43;101276.89;;;-1.27;84.82
59417;BME280;45222;52.458;20.914;2023-01-29T10:46:45;101270.45;;;-1.26;84.70
59417;BME280;45222;52.458;20.914;2023-01-29T10:50:46;101262.45;;;-1.24;84.63
59417;BME280;45222;52.458;20.914;2023-01-29T10:54:45;101263.31;;;-1.24;84.81
59417;BME280;45222;52.458;20.914;2023-01-29T10:58:40;101260.40;;;-1.20;84.87
59417;BME280;45222;52.458;20.914;2023-01-29T11:02:30;101250.16;;;-1.16;84.66
59417;BME280;45222;52.458;20.914;2023-01-29T11:06:20;101238.05;;;-1.20;84.66
59417;BME280;45222;52.458;20.914;2023-01-29T11:10:15;101231.96;;;-1.19;84.58
59417;BME280;45222;52.458;20.914;2023-01-29T11:14:07;101216.98;;;-1.17;84.68
59417;BME280;45222;52.458;20.914;2023-01-29T11:18:07;101213.33;;;-1.17;84.57
59417;BME280;45222;52.458;20.914;2023-01-29T11:22:00;101199.66;;;-1.20;84.65
59417;BME280;45222;52.458;20.914;2023-01-29T11:25:54;101193.70;;;-1.22;84.61
59417;BME280;45222;52.458;20.914;2023-01-29T11:29:44;101191.63;;;-1.22;84.62
59417;BME280;45222;52.458;20.914;2023-01-29T11:33:33;101190.46;;;-1.17;84.61
59417;BME280;45222;52.458;20.914;2023-01-29T11:37:21;101177.45;;;-1.11;84.52
59417;BME280;45222;52.458;20.914;2023-01-29T11:41:16;101176.65;;;-1.05;84.15
59417;BME280;45222;52.458;20.914;2023-01-29T11:45:25;101173.01;;;-1.02;83.94
59417;BME280;45222;52.458;20.914;2023-01-29T11:49:31;101159.95;;;-0.98;83.94
59417;BME280;45222;52.458;20.914;2023-01-29T11:53:29;101146.54;;;-0.97;83.88
59417;BME280;45222;52.458;20.914;2023-01-29T11:57:27;101137.11;;;-0.97;83.64
59417;BME280;45222;52.458;20.914;2023-01-29T12:01:21;101132.67;;;-1.03;83.64
59417;BME280;45222;52.458;20.914;2023-01-29T12:05:17;101129.70;;;-1.02;83.92
59417;BME280;45222;52.458;20.914;2023-01-29T12:09:14;101118.51;;;-1.04;83.88
59417;BME280;45222;52.458;20.914;2023-01-29T12:13:24;101116.58;;;-1.06;84.04
59417;BME280;45222;52.458;20.914;2023-01-29T12:17:15;101114.77;;;-1.11;84.23
59417;BME280;45222;52.458;20.914;2023-01-29T12:21:13;101108.83;;;-1.11;84.31
59417;BME280;45222;52.458;20.914;2023-01-29T12:25:08;101113.72;;;-1.11;84.52
59417;BME280;45222;52.458;20.914;2023-01-29T12:29:17;101100.27;;;-1.14;84.57
59417;BME280;45222;52.458;20.914;2023-01-29T12:33:17;101097.23;;;-1.18;84.72
59417;BME280;45222;52.458;20.914;2023-01-29T12:37:15;101095.83;;;-1.19;84.85
59417;BME280;45222;52.458;20.914;2023-01-29T12:41:10;101083.79;;;-1.19;85.07
59417;BME280;45222;52.458;20.914;2023-01-29T12:45:09;101077.90;;;-1.15;85.24
59417;BME280;45222;52.458;20.914;2023-01-29T12:49:07;101075.66;;;-1.13;85.23
59417;BME280;45222;52.458;20.914;2023-01-29T12:53:00;101077.54;;;-1.16;85.20
59417;BME280;45222;52.458;20.914;2023-01-29T12:56:50;101082.63;;;-1.14;85.29
59417;BME280;45222;52.458;20.914;2023-01-29T13:00:42;101088.40;;;-1.12;85.30
59417;BME280;45222;52.458;20.914;2023-01-29T13:04:38;101089.79;;;-1.14;85.38
59417;BME280;45222;52.458;20.914;2023-01-29T13:08:31;101092.89;;;-1.16;85.44
59417;BME280;45222;52.458;20.914;2023-01-29T13:12:23;101084.52;;;-1.17;85.63
59417;BME280;45222;52.458;20.914;2023-01-29T13:16:12;101078.39;;;-1.18;85.77
59417;BME280;45222;52.458;20.914;2023-01-29T13:20:15;101081.89;;;-1.17;85.84
59417;BME280;45222;52.458;20.914;2023-01-29T13:24:10;101085.61;;;-1.13;86.06
59417;BME280;45222;52.458;20.914;2023-01-29T13:27:59;101084.19;;;-1.15;86.04
59417;BME280;45222;52.458;20.914;2023-01-29T13:31:48;101068.98;;;-1.16;86.11
59417;BME280;45222;52.458;20.914;2023-01-29T13:35:38;101046.63;;;-1.18;86.25
59417;BME280;45222;52.458;20.914;2023-01-29T13:39:29;101038.45;;;-1.15;86.45
59417;BME280;45222;52.458;20.914;2023-01-29T13:43:20;101048.03;;;-1.18;86.41
59417;BME280;45222;52.458;20.914;2023-01-29T13:47:20;101058.34;;;-1.16;86.79
59417;BME280;45222;52.458;20.914;2023-01-29T13:51:11;101050.83;;;-1.16;86.87
59417;BME280;45222;52.458;20.914;2023-01-29T13:55:07;101055.89;;;-1.16;86.98
59417;BME280;45222;52.458;20.914;2023-01-29T13:58:57;101063.92;;;-1.17;87.17
59417;BME280;45222;52.458;20.914;2023-01-29T14:02:45;101066.82;;;-1.22;87.29
59417;BME280;45222;52.458;20.914;2023-01-29T14:06:53;101079.79;;;-1.19;87.42
59417;BME280;45222;52.458;20.914;2023-01-29T14:10:42;101079.25;;;-1.19;87.58
59417;BME280;45222;52.458;20.914;2023-01-29T14:15:00;101082.56;;;-1.18;87.74
59417;BME280;45222;52.458;20.914;2023-01-29T14:18:55;101075.67;;;-1.12;87.93
59417;BME280;45222;52.458;20.914;2023-01-29T14:22:44;101062.89;;;-1.15;88.04
59417;BME280;45222;52.458;20.914;2023-01-29T14:26:47;101058.13;;;-1.20;88.20
59417;BME280;45222;52.458;20.914;2023-01-29T14:30:36;101050.98;;;-1.19;88.32
59417;BME280;45222;52.458;20.914;2023-01-29T14:34:29;101044.85;;;-1.20;88.22
59417;BME280;45222;52.458;20.914;2023-01-29T14:38:18;101039.82;;;-1.17;88.54
59417;BME280;45222;52.458;20.914;2023-01-29T14:42:20;101025.47;;;-1.22;88.55
59417;BME280;45222;52.458;20.914;2023-01-29T14:46:42;101034.17;;;-1.24;88.66
59417;BME280;45222;52.458;20.914;2023-01-29T14:50:51;101040.66;;;-1.21;88.99
59417;BME280;45222;52.458;20.914;2023-01-29T14:54:41;101047.65;;;-1.20;89.31
59417;BME280;45222;52.458;20.914;2023-01-29T14:58:36;101053.89;;;-1.24;89.38
59417;BME280;45222;52.458;20.914;2023-01-29T15:02:26;101042.17;;;-1.26;89.52
59417;BME280;45222;52.458;20.914;2023-01-29T15:06:31;101029.45;;;-1.25;89.61
59417;BME280;45222;52.458;20.914;2023-01-29T15:10:24;101011.02;;;-1.18;89.81
59417;BME280;45222;52.458;20.914;2023-01-29T15:14:23;101015.22;;;-1.17;90.08
59417;BME280;45222;52.458;20.914;2023-01-29T15:18:14;101003.69;;;-1.18;90.01
59417;BME280;45222;52.458;20.914;2023-01-29T15:22:05;101009.44;;;-1.19;90.14
59417;BME280;45222;52.458;20.914;2023-01-29T15:25:56;101002.81;;;-1.18;90.32
59417;BME280;45222;52.458;20.914;2023-01-29T15:29:50;100999.69;;;-1.16;90.39
59417;BME280;45222;52.458;20.914;2023-01-29T15:33:44;100994.84;;;-1.12;90.40
59417;BME280;45222;52.458;20.914;2023-01-29T15:37:34;100996.93;;;-1.13;90.61
59417;BME280;45222;52.458;20.914;2023-01-29T15:41:26;100996.27;;;-1.09;90.63
59417;BME280;45222;52.458;20.914;2023-01-29T15:45:29;100993.83;;;-1.10;90.53
59417;BME280;45222;52.458;20.914;2023-01-29T15:49:28;100993.12;;;-1.09;90.46
59417;BME280;45222;52.458;20.914;2023-01-29T15:53:21;100990.83;;;-1.13;90.48
59417;BME280;45222;52.458;20.914;2023-01-29T15:57:19;100993.11;;;-1.10;90.63
59417;BME280;45222;52.458;20.914;2023-01-29T16:01:08;100987.71;;;-1.10;90.42
59417;BME280;45222;52.458;20.914;2023-01-29T16:04:57;100989.64;;;-1.08;90.34
59417;BME280;45222;52.458;20.914;2023-01-29T16:08:47;101000.50;;;-1.05;90.07
59417;BME280;45222;52.458;20.914;2023-01-29T16:12:36;101005.71;;;-1.07;89.98
59417;BME280;45222;52.458;20.914;2023-01-29T16:16:26;101007.29;;;-1.07;90.19
59417;BME280;45222;52.458;20.914;2023-01-29T16:20:30;101006.83;;;-1.01;90.32
59417;BME280;45222;52.458;20.914;2023-01-29T16:24:19;101012.60;;;-1.00;90.43
59417;BME280;45222;52.458;20.914;2023-01-29T16:28:10;101010.58;;;-0.92;90.63
59417;BME280;45222;52.458;20.914;2023-01-29T16:31:59;101009.16;;;-0.94;90.62
59417;BME280;45222;52.458;20.914;2023-01-29T16:35:52;101009.13;;;-0.97;91.03
59417;BME280;45222;52.458;20.914;2023-01-29T16:39:44;101014.40;;;-0.93;90.90
59417;BME280;45222;52.458;20.914;2023-01-29T16:43:51;101006.75;;;-0.89;91.12
59417;BME280;45222;52.458;20.914;2023-01-29T16:47:40;100997.67;;;-0.88;91.31
59417;BME280;45222;52.458;20.914;2023-01-29T16:51:29;100990.71;;;-0.87;91.28
59417;BME280;45222;52.458;20.914;2023-01-29T16:55:23;100988.48;;;-0.83;91.28
59417;BME280;45222;52.458;20.914;2023-01-29T16:59:19;100988.80;;;-0.85;91.12
59417;BME280;45222;52.458;20.914;2023-01-29T17:03:12;100986.17;;;-0.86;91.12
59417;BME280;45222;52.458;20.914;2023-01-29T17:07:02;100982.66;;;-0.89;91.07
59417;BME280;45222;52.458;20.914;2023-01-29T17:10:50;100975.17;;;-0.87;91.19
59417;BME280;45222;52.458;20.914;2023-01-29T17:14:38;100969.91;;;-0.88;91.36
59417;BME280;45222;52.458;20.914;2023-01-29T17:18:29;100969.55;;;-0.91;91.36
59417;BME280;45222;52.458;20.914;2023-01-29T17:22:16;100967.08;;;-0.95;91.44
59417;BME280;45222;52.458;20.914;2023-01-29T17:26:05;100957.82;;;-0.95;91.32
59417;BME280;45222;52.458;20.914;2023-01-29T17:29:52;100950.48;;;-0.96;91.33
59417;BME280;45222;52.458;20.914;2023-01-29T17:33:41;100945.95;;;-0.95;91.24
59417;BME280;45222;52.458;20.914;2023-01-29T17:37:30;100938.13;;;-0.89;91.12
59417;BME280;45222;52.458;20.914;2023-01-29T17:41:22;100921.55;;;-0.88;91.17
59417;BME280;45222;52.458;20.914;2023-01-29T17:45:11;100909.84;;;-0.88;91.10
59417;BME280;45222;52.458;20.914;2023-01-29T17:48:59;100901.82;;;-0.88;91.00
59417;BME280;45222;52.458;20.914;2023-01-29T17:52:48;100898.66;;;-0.89;90.99
59417;BME280;45222;52.458;20.914;2023-01-29T17:56:36;100885.92;;;-0.89;91.10
59417;BME280;45222;52.458;20.914;2023-01-29T18:00:24;100880.36;;;-0.85;91.09
59417;BME280;45222;52.458;20.914;2023-01-29T18:04:12;100870.08;;;-0.85;90.95
59417;BME280;45222;52.458;20.914;2023-01-29T18:08:00;100868.50;;;-0.84;91.02
59417;BME280;45222;52.458;20.914;2023-01-29T18:11:49;100865.71;;;-0.81;90.93
59417;BME280;45222;52.458;20.914;2023-01-29T18:15:37;100860.98;;;-0.84;90.84
59417;BME280;45222;52.458;20.914;2023-01-29T18:19:25;100860.30;;;-0.83;90.79
59417;BME280;45222;52.458;20.914;2023-01-29T18:23:13;100863.80;;;-0.84;90.68
59417;BME280;45222;52.458;20.914;2023-01-29T18:27:01;100855.41;;;-0.82;90.80
59417;BME280;45222;52.458;20.914;2023-01-29T18:30:49;100853.15;;;-0.80;90.83
59417;BME280;45222;52.458;20.914;2023-01-29T18:34:39;100854.39;;;-0.78;90.81
59417;BME280;45222;52.458;20.914;2023-01-29T18:38:27;100856.85;;;-0.76;90.67
59417;BME280;45222;52.458;20.914;2023-01-29T18:42:15;100859.45;;;-0.78;90.55
59417;BME280;45222;52.458;20.914;2023-01-29T18:46:03;100853.84;;;-0.79;90.42
59417;BME280;45222;52.458;20.914;2023-01-29T18:49:51;100849.69;;;-0.75;90.43
59417;BME280;45222;52.458;20.914;2023-01-29T18:53:40;100849.19;;;-0.69;90.50
59417;BME280;45222;52.458;20.914;2023-01-29T18:57:28;100839.39;;;-0.71;90.25
59417;BME280;45222;52.458;20.914;2023-01-29T19:01:16;100838.37;;;-0.69;90.05
59417;BME280;45222;52.458;20.914;2023-01-29T19:05:04;100839.75;;;-0.72;89.94
59417;BME280;45222;52.458;20.914;2023-01-29T19:08:52;100845.90;;;-0.67;90.01
59417;BME280;45222;52.458;20.914;2023-01-29T19:12:40;100842.59;;;-0.65;89.90
59417;BME280;45222;52.458;20.914;2023-01-29T19:16:28;100839.92;;;-0.71;89.93
59417;BME280;45222;52.458;20.914;2023-01-29T19:20:16;100834.86;;;-0.71;89.90
59417;BME280;45222;52.458;20.914;2023-01-29T19:24:05;100827.67;;;-0.73;89.86
59417;BME280;45222;52.458;20.914;2023-01-29T19:27:55;100822.13;;;-0.69;89.99
59417;BME280;45222;52.458;20.914;2023-01-29T19:31:43;100816.36;;;-0.69;90.15
59417;BME280;45222;52.458;20.914;2023-01-29T19:35:31;100808.14;;;-0.70;90.15
59417;BME280;45222;52.458;20.914;2023-01-29T19:39:19;100808.50;;;-0.67;90.22
59417;BME280;45222;52.458;20.914;2023-01-29T19:43:07;100800.30;;;-0.68;90.04
59417;BME280;45222;52.458;20.914;2023-01-29T19:46:54;100800.98;;;-0.69;89.94
59417;BME280;45222;52.458;20.914;2023-01-29T19:50:42;100794.69;;;-0.71;89.94
59417;BME280;45222;52.458;20.914;2023-01-29T19:54:37;100787.36;;;-0.69;90.18
59417;BME280;45222;52.458;20.914;2023-01-29T19:58:24;100785.63;;;-0.68;90.27
59417;BME280;45222;52.458;20.914;2023-01-29T20:02:12;100779.48;;;-0.74;90.32
59417;BME280;45222;52.458;20.914;2023-01-29T20:06:03;100771.61;;;-0.76;90.42